Levelroad, Alabama
Current Conditions -  °F | °C
As of 3:15 AM on Monday 24 Nov 2014 (Local Time) from KLGC Reporting Station
Overcast Overcast  
Wind Chill: 67°   Ceiling: 1700
Heat Index: 67°   Visibility: 10mi
Dew Point: 64°   Wind: 8mph
Humidity: 88%   Direction: 220°SW
Pressure: 29.75"   Gusts: NA
Location:  33.1661°N, 85.5111°W
Report Text: KLGC 240915Z AUTO 22007KT 10SM OVC017 20/18 A2975 RMK AO2 T01970177
Loading
Personal Weather Stations






























Interactive Weather Map New forecast layout! Learn more

10-Day Weather Forecast

Advertisements
Track Severe Weather on mobile